Crystal, ND

3:32 AM CDT on April 19, 2015 (GMT -0500)
Hoople nd | | Change Station
CLOSE
Current Station
Personal Weather Station
Location: Hoople, ND
Elevation: 870 ft
Nearby Weather Stations

Elev 870 ft 48.52 °N, 97.62 °W | Updated 13 minutes ago

Overcast
Overcast
46.9 °F
Feels Like 43 °F
N
8.0
Wind Variable Wind from West
Gusts 9.0 mph

Today
High -- | Low -- °F
--% Chance of Precip.
Yesterday
High -- | Low -- °F
Precip. -- in
6:32 AM 8:27 PM
New Moon, 0% visible
Pressure 29.79 in
Visibility 7.0 miles
Clouds Mostly Cloudy 3600 ft
Overcast 5000 ft
Windchill 43 °F
Dew Point 43 °F
Humidity 86%
Rainfall 0.04 in
Snow Depth Not available.
UV 0 out of 12
Pollen 9.50 out of 12
Air Quality Not available.
Flu Activity Regional
METAR K2C8 190815Z AUTO 31007KT 7SM -RA BKN036 OVC050 10/05 A2979 RMK AO2

More Conditions Fewer Conditions

Pressure 29.79 in
Visibility 7.0 miles
Clouds Mostly Cloudy 3600 ft
Overcast 5000 ft
Windchill 43 °F
Dew Point 43 °F
Humidity 86%
Rainfall 0.04 in
Snow Depth Not available.
UV 0 out of 12
Pollen 9.50 out of 12
Air Quality Not available.
Flu Activity Regional
METAR K2C8 190815Z AUTO 31007KT 7SM -RA BKN036 OVC050 10/05 A2979 RMK AO2

More Conditions Fewer Conditions

10-Day Weather Forecast

Almanac

Astronomy

Apr. 19, 2015 Rise Set
Actual Time
Civil Twilight
Nautical Twilight
Astronomical Twilight
Moon
Length of Visible Light
Length of Day
Tomorrow will be .
, % of the Moon is Illuminated

Today's Extremes

State Highs State Lows

Community

WunderPhotos

Upload Photos

1,814,723 photos uploaded!

WunderBlogs® & News

Nearby

Air Quality

  Air Quality AQ Index Pollutant
Not available.

Snow Depth

Station Depth Elevation

Earthquake Activity

City Distance Mag. Time & Date
Minimum magnitude displayed is 2.5.

Coastal Water Temperatures

Place Temperature

Stations

Nearby Weather Stations

Station Location Temp. Windchill Dew Point Humidity Wind Precip. Elev Updated Type